• Join FlightAware (Why Join?)
  • Login
  • US Flag 
06:01PM EDT


 

Airport Tracker/Info


-or-


 

Live Flight TrackerFlight Track Log ✈ EJA933 ✈ 26-Jul-2013 ✈ KHPN - KMEI

Flight Track Log - Related Links

Times and Time Zones

All times are in EDT time to prevent confusion due to time zone crossing. See the EJA933 flight status page for this flight to view local times or setup timezone preferences in your user account.

Time Position Orientation Groundspeed Altitude Reporting Facility
EDT Latitude Longitude Course Direction KTS MPH feet Rate Location/Type
05:51PM 41.1000 -73.7833 270° West 213 245 4,000  Level New York TRACON
05:52PM 41.1000 -73.8667 270° West 256 295 6,500 1,560 Climbing New York TRACON
05:53PM 41.0833 -73.9667 258° West 269 310 7,200 1,080 Climbing New York TRACON
05:54PM 41.0500 -74.0500 242° Southwest 279 321 8,600 1,680 Climbing New York TRACON
05:55PM 41.0000 -74.1333 232° Southwest 295 339 10,500 1,620 Climbing New York TRACON
05:56PM 40.9333 -74.2333 229° Southwest 340 391 11,900 1,560 Climbing New York TRACON
05:57PM 40.8667 -74.3333 229° Southwest 369 425 13,800 1,200 Climbing New York TRACON
05:59PM 40.7642 -74.5356 236° Southwest 398 458 15,500 1,020 Climbing New York Center
06:00PM 40.7053 -74.6803 242° Southwest 404 465 16,800 1,560 Climbing New York Center
06:01PM 40.6578 -74.7922 241° Southwest 404 465 18,600 1,800 Climbing New York Center
06:02PM 40.6008 -74.9311 242° Southwest 398 458 20,600 2,040 Climbing New York Center
06:03PM 40.5444 -75.0533 239° Southwest 403 464 22,800 2,220 Climbing New York Center
06:04PM 40.4736 -75.1661 230° Southwest 403 464 25,000 2,160 Climbing New York Center
06:05PM 40.4047 -75.2792 231° Southwest 403 464 27,200 1,920 Climbing New York Center
06:06PM 40.3336 -75.3914 230° Southwest 403 464 29,000 1,320 Climbing New York Center
06:07PM 40.2558 -75.5142 230° Southwest 421 484 29,900 1,020 Climbing New York Center
06:08PM 40.1817 -75.6475 234° Southwest 445 512 31,100 1,200 Climbing New York Center
06:09PM 40.1111 -75.7892 237° Southwest 462 532 32,400 1,380 Climbing New York Center
06:10PM 40.0381 -75.9358 237° Southwest 481 554 33,900 1,560 Climbing New York Center
06:11PM 39.9628 -76.0767 235° Southwest 481 554 35,600 1,680 Climbing New York Center
06:12PM 39.8919 -76.2172 237° Southwest 481 554 37,300 1,320 Climbing New York Center
06:13PM 39.8047 -76.3883 236° Southwest 480 552 38,600 1,080 Climbing Washington Center
06:14PM 39.7286 -76.5303 235° Southwest 480 552 39,700 660 Climbing Washington Center
06:15PM 39.6547 -76.6722 236° Southwest 480 552 40,000 120 Climbing Washington Center
06:16PM 39.5783 -76.8192 236° Southwest 488 562 40,000  Level Washington Center
06:17PM 39.4975 -76.9658 234° Southwest 493 567 40,000  Level Washington Center
06:18PM 39.3939 -77.0900 223° Southwest 498 573 40,000  Level Washington Center
06:19PM 39.2881 -77.2058 220° Southwest 498 573 40,000  Level Washington Center
06:20PM 39.1967 -77.3350 228° Southwest 503 579 40,000  Level Washington Center
06:21PM 39.1031 -77.4667 228° Southwest 503 579 40,000  Level Washington Center
06:22PM 39.0072 -77.5978 227° Southwest 503 579 40,000  Level Washington Center
06:23PM 38.9258 -77.7156 228° Southwest 498 573 40,000  Level Washington Center
06:24PM 38.8383 -77.8331 226° Southwest 498 573 40,000  Level Washington Center
06:25PM 38.7356 -77.9789 228° Southwest 503 579 40,000  Level Washington Center
06:26PM 38.6433 -78.1036 227° Southwest 503 579 40,000  Level Washington Center
06:27PM 38.5508 -78.2306 227° Southwest 498 573 40,000  Level Washington Center
06:28PM 38.4561 -78.3597 227° Southwest 498 573 40,000  Level Washington Center
06:29PM 38.3636 -78.4861 227° Southwest 498 573 40,000  Level Washington Center
06:30PM 38.2708 -78.6119 227° Southwest 498 573 40,000  Level Washington Center
06:31PM 38.1714 -78.7533 228° Southwest 491 565 40,000  Level Washington Center
06:32PM 38.0761 -78.8811 227° Southwest 491 565 40,000  Level Washington Center
06:33PM 37.9831 -79.0036 226° Southwest 491 565 40,000  Level Washington Center
06:34PM 37.8917 -79.1336 228° Southwest 491 565 40,000  Level Washington Center
06:35PM 37.8272 -79.2647 238° Southwest 496 571 40,000  Level Washington Center
06:36PM 37.7536 -79.4133 238° Southwest 496 571 40,000  Level Washington Center
06:37PM 37.6711 -79.5747 237° Southwest 501 577 40,000  Level Washington Center
06:38PM 37.6042 -79.7075 238° Southwest 507 583 40,000  Level Washington Center
06:39PM 37.5278 -79.8603 238° Southwest 507 583 40,000  Level Washington Center
06:40PM 37.4558 -80.0028 238° Southwest 507 583 40,000  Level Washington Center
06:41PM 37.3653 -80.1719 236° Southwest 495 570 40,000  Level Atlanta Center
06:42PM 37.2828 -80.3350 238° Southwest 500 575 40,000  Level Atlanta Center
06:43PM 37.2078 -80.4767 236° Southwest 500 575 40,000  Level Atlanta Center
06:44PM 37.1325 -80.6233 237° Southwest 500 575 40,000  Level Atlanta Center
06:45PM 37.0636 -80.7719 240° Southwest 500 575 40,000  Level Atlanta Center
06:46PM 37.0133 -80.9144 246° West 500 575 40,000  Level Atlanta Center
06:47PM 36.9567 -81.0697 245° Southwest 495 570 40,000  Level Atlanta Center
06:48PM 36.9019 -81.2275 247° West 495 570 40,000 300 Level Atlanta Center
06:49PM 36.8392 -81.4011 246° West 495 570 40,600 600 Climbing Atlanta Center
06:50PM 36.7839 -81.5531 246° West 490 564 41,300 660 Climbing Atlanta Center
06:51PM 36.7325 -81.6997 246° West 473 544 42,000 660 Climbing Atlanta Center
06:52PM 36.6789 -81.8464 246° West 467 537 42,700 480 Climbing Atlanta Center
06:53PM 36.6253 -81.9928 246° West 462 532 43,000 120 Climbing Atlanta Center
06:54PM 36.5711 -82.1414 246° West 469 540 43,000  Level Atlanta Center
06:55PM 36.5192 -82.2769 245° Southwest 474 545 43,000  Level Atlanta Center
06:56PM 36.4628 -82.4253 245° Southwest 474 545 43,000  Level Atlanta Center
06:57PM 36.4083 -82.5761 246° West 479 551 43,000  Level Atlanta Center
06:58PM 36.3494 -82.7267 244° Southwest 485 558 43,000  Level Atlanta Center
06:59PM 36.2947 -82.8769 246° West 482 555 43,000  Level Atlanta Center
07:00PM 36.2378 -83.0269 245° Southwest 482 555 43,000  Level Atlanta Center
07:01PM 36.1803 -83.1744 244° Southwest 482 555 43,000  Level Atlanta Center
07:02PM 36.1231 -83.3267 245° Southwest 487 560 43,000  Level Atlanta Center
07:03PM 36.0653 -83.4761 244° Southwest 487 560 43,000  Level Atlanta Center
07:04PM 36.0097 -83.6203 245° Southwest 487 560 43,000  Level Atlanta Center
07:05PM 35.9475 -83.7847 245° Southwest 482 555 43,000  Level Atlanta Center
07:06PM 35.8808 -83.9261 240° Southwest 487 560 43,000  Level Atlanta Center
07:07PM 35.7914 -84.0517 229° Southwest 487 560 43,000  Level Atlanta Center
07:08PM 35.7036 -84.1769 229° Southwest 492 566 43,000  Level Atlanta Center
07:09PM 35.6136 -84.3019 228° Southwest 492 566 43,000  Level Atlanta Center
07:10PM 35.5217 -84.4242 227° Southwest 492 566 43,000  Level Atlanta Center
07:11PM 35.4333 -84.5511 230° Southwest 492 566 43,000  Level Atlanta Center
07:12PM 35.3411 -84.6728 227° Southwest 492 566 43,000  Level Atlanta Center
07:13PM 35.2528 -84.8017 230° Southwest 492 566 43,000  Level Atlanta Center
07:14PM 35.1622 -84.9228 228° Southwest 492 566 43,000  Level Atlanta Center
07:15PM 35.0717 -85.0489 229° Southwest 492 566 43,000  Level Atlanta Center
07:16PM 34.9786 -85.1744 228° Southwest 492 566 43,000  Level Atlanta Center
07:17PM 34.8856 -85.2997 228° Southwest 492 566 43,000  Level Atlanta Center
07:18PM 34.7967 -85.4197 228° Southwest 492 566 43,000  Level Atlanta Center
07:19PM 34.7033 -85.5447 228° Southwest 492 566 43,000  Level Atlanta Center
07:20PM 34.6100 -85.6717 228° Southwest 492 566 43,000  Level Atlanta Center
07:21PM 34.5164 -85.7958 228° Southwest 497 572 43,000  Level Atlanta Center
07:22PM 34.4250 -85.9125 226° Southwest 497 572 43,000 -180 Level Atlanta Center
07:23PM 34.3311 -86.0361 227° Southwest 492 566 42,700 -540 Descending Atlanta Center
07:24PM 34.2372 -86.1619 228° Southwest 492 566 42,000 -780 Descending Atlanta Center
07:25PM 34.1369 -86.2850 225° Southwest 504 580 41,200 -780 Descending Atlanta Center
07:26PM 34.0450 -86.4078 228° Southwest 504 580 40,500 -720 Descending Atlanta Center
07:27PM 33.9569 -86.5233 227° Southwest 491 565 39,800 -840 Descending Atlanta Center
07:28PM 33.8692 -86.6383 227° Southwest 478 550 38,900 -1,020 Descending Atlanta Center
07:29PM 33.7767 -86.7578 227° Southwest 480 552 37,800 -1,500 Descending Atlanta Center
07:30PM 33.6864 -86.8750 227° Southwest 485 558 36,000 -1,980 Descending Atlanta Center
07:31PM 33.6000 -87.0017 231° Southwest 485 558 33,900 -2,100 Descending Atlanta Center
07:32PM 33.5133 -87.1358 232° Southwest 499 574 31,900 -2,040 Descending Atlanta Center
07:33PM 33.4219 -87.2719 231° Southwest 518 596 29,900 -2,100 Descending Atlanta Center
07:34PM 33.3308 -87.4053 231° Southwest 524 603 27,700 -1,800 Descending Atlanta Center
07:35PM 33.2436 -87.5358 231° Southwest 519 597 26,400 -1,200 Descending Atlanta Center
07:36PM 33.1631 -87.6567 231° Southwest 500 575 25,400 -1,020 Descending Atlanta Center
07:37PM 33.0822 -87.7775 231° Southwest 486 559 24,400 -5,580 Descending Atlanta Center
07:38PM 32.9844 -87.9328 233° Southwest 481 554 13,000 -1,740 Descending Memphis Center
07:39PM 32.9031 -88.0464 230° Southwest 471 542 20,600 2,520 Climbing Memphis Center
07:40PM 32.8256 -88.1569 230° Southwest 452 520 18,100 -2,580 Descending Memphis Center
07:41PM 32.7564 -88.2625 232° Southwest 430 495 15,500 -2,760 Descending Memphis Center
07:42PM 32.6953 -88.3503 230° Southwest 390 449 12,600 -2,700 Descending Memphis Center
07:43PM 32.6444 -88.4256 231° Southwest 340 391 10,200 -2,160 Descending Memphis Center
07:44PM 32.5953 -88.4931 229° Southwest 302 348 8,300 -1,920 Descending Memphis Center
07:45PM 32.5461 -88.5631 230° Southwest 283 326 6,400 -1,860 Descending Memphis Center
07:46PM 32.4969 -88.6283 228° Southwest 278 320 4,600 -1,740 Descending Memphis Center
07:47PM 32.4539 -88.6906 231° Southwest 272 313 3,000 -1,500 Descending Memphis Center
07:48PM 32.4047 -88.7408 221° Southwest 262 302 1,700 -1,140 Descending Memphis Center
07:49PM 32.3444 -88.7714 203° Southwest 225 259 800 -900 Descending Memphis Center